Time;durP1;ratioP1;P1;durP2;ratioP2;P2;SDS_P1;SDS_P2;PMS_P1;PMS_P2;Temp;Humidity;BMP_temperature;BMP_pressure;BME280_temperature;BME280_humidity;BME280_pressure;Samples;Min_cycle;Max_cycle;Signal;HPM_P1;HPM_P2
2022/01/24 00:01:52;;;;;;;4.65;0.98;;;24.90;99.90;;;;;;5013464;28;20026;-70
2022/01/24 00:04:21;;;;;;;7.55;0.82;;;25.10;99.90;;;;;;5012466;28;20100;-69
2022/01/24 00:06:49;;;;;;;3.92;0.75;;;25.10;99.90;;;;;;5013250;28;20076;-73
2022/01/24 00:09:17;;;;;;;7.80;1.05;;;25.10;99.90;;;;;;5013070;28;20044;-74
2022/01/24 00:27:47;;;;;;;6.20;1.15;;;24.90;99.90;;;;;;5013157;28;20088;-68
2022/01/24 00:30:15;;;;;;;5.28;1.35;;;24.90;99.90;;;;;;5013052;28;20060;-68
2022/01/24 00:32:43;;;;;;;8.27;1.13;;;24.80;99.90;;;;;;5012786;28;20033;-70
2022/01/24 00:35:11;;;;;;;8.05;0.95;;;24.90;99.90;;;;;;5012678;28;20112;-68
2022/01/24 00:37:39;;;;;;;1.60;0.70;;;24.90;99.90;;;;;;5012631;28;20026;-69
2022/01/24 00:40:08;;;;;;;3.17;0.60;;;25.00;99.90;;;;;;5013117;28;20067;-70
2022/01/24 00:42:52;;;;;;;5.75;0.85;;;25.00;99.90;;;;;;5012874;28;20281;-68
2022/01/24 00:45:35;;;;;;;6.45;1.15;;;25.00;99.90;;;;;;5012862;28;20378;-69
2022/01/24 00:48:21;;;;;;;6.47;0.70;;;25.00;99.90;;;;;;5012699;28;20424;-68
2022/01/24 00:53:49;;;;;;;1.55;0.70;;;25.00;99.70;;;;;;5012763;28;20398;-70
2022/01/24 00:56:17;;;;;;;3.83;0.60;;;24.90;99.90;;;;;;5012555;28;20032;-70
2022/01/24 00:58:44;;;;;;;3.58;0.50;;;25.00;99.90;;;;;;5012590;28;20426;-69
2022/01/24 01:01:12;;;;;;;3.88;0.50;;;25.00;99.30;;;;;;5012468;28;20029;-70
2022/01/24 01:03:39;;;;;;;3.03;0.70;;;25.10;99.60;;;;;;5012584;28;20022;-68
2022/01/24 01:06:08;;;;;;;3.63;0.43;;;25.10;99.50;;;;;;5012542;28;20037;-68
2022/01/24 01:19:43;;;;;;;22.10;3.10;;;25.10;98.00;;;;;;5012201;28;20084;-68
2022/01/24 01:22:10;;;;;;;3.78;0.75;;;25.30;98.50;;;;;;5012153;28;20025;-68
2022/01/24 01:24:44;;;;;;;7.25;0.70;;;25.50;98.50;;;;;;5012106;28;20029;-66
2022/01/24 01:27:19;;;;;;;5.40;0.77;;;25.80;99.90;;;;;;5011977;28;20029;-68
2022/01/24 01:30:01;;;;;;;6.40;0.70;;;26.00;99.90;;;;;;5011469;28;20135;-68
2022/01/24 01:32:57;;;;;;;5.28;0.50;;;26.30;99.90;;;;;;5012051;28;20025;-68
2022/01/24 01:57:17;;;;;;;11.20;1.90;;;25.90;99.90;;;;;;5027771;28;20025;-71
2022/01/24 01:59:45;;;;;;;5.75;1.45;;;25.80;99.90;;;;;;5030475;28;20021;-67
2022/01/24 02:02:13;;;;;;;7.00;0.80;;;25.80;99.90;;;;;;5030818;28;20026;-67
2022/01/24 02:04:41;;;;;;;5.28;0.50;;;25.70;99.90;;;;;;5030369;28;20022;-66
2022/01/24 02:07:14;;;;;;;3.83;0.80;;;25.70;99.90;;;;;;5030001;28;20031;-67
2022/01/24 02:09:44;;;;;;;9.10;0.77;;;25.60;99.90;;;;;;5029981;28;20064;-70
2022/01/24 02:12:12;;;;;;;6.88;0.90;;;25.50;99.90;;;;;;5029897;28;20471;-69
2022/01/24 02:14:48;;;;;;;8.35;1.17;;;25.50;99.90;;;;;;5029388;28;20049;-69
2022/01/24 02:17:23;;;;;;;7.65;1.05;;;25.40;99.90;;;;;;5029978;28;20017;-68
2022/01/24 02:22:51;;;;;;;5.28;1.20;;;25.50;99.90;;;;;;5029061;28;20087;-67
2022/01/24 02:25:27;;;;;;;5.38;0.90;;;25.60;99.90;;;;;;5029180;28;20025;-71
2022/01/24 02:28:02;;;;;;;6.55;0.77;;;25.70;99.90;;;;;;5027961;28;20013;-71
2022/01/24 02:33:14;;;;;;;4.40;0.93;;;26.50;99.90;;;;;;5028610;28;20076;-68
2022/01/24 02:35:42;;;;;;;4.47;0.60;;;26.50;99.90;;;;;;5030353;28;20017;-67
2022/01/24 02:49:13;;;;;;;6.30;0.60;;;26.70;99.40;;;;;;5031791;28;20082;-69
2022/01/24 02:51:46;;;;;;;6.03;0.82;;;27.10;99.10;;;;;;5033189;28;20044;-71
2022/01/24 02:54:27;;;;;;;2.20;0.80;;;27.40;98.70;;;;;;5033897;28;20048;-68
2022/01/24 02:56:54;;;;;;;4.43;1.02;;;27.80;99.00;;;;;;5034393;28;20099;-71
2022/01/24 02:59:22;;;;;;;6.82;1.00;;;28.30;97.50;;;;;;5034310;28;20026;-71
2022/01/24 03:01:50;;;;;;;8.30;1.00;;;28.50;96.50;;;;;;5032746;28;20440;-68
2022/01/24 03:04:17;;;;;;;9.60;1.45;;;28.60;96.10;;;;;;5032960;28;20087;-67
2022/01/24 03:06:45;;;;;;;5.82;1.73;;;28.60;96.00;;;;;;5034391;28;20049;-72
2022/01/24 03:09:13;;;;;;;4.78;0.77;;;28.80;95.70;;;;;;5033953;28;20512;-67
2022/01/24 03:14:35;;;;;;;3.20;0.52;;;29.80;94.20;;;;;;5033823;28;20090;-71
2022/01/24 03:17:04;;;;;;;4.65;1.25;;;30.20;93.00;;;;;;5033718;28;20025;-67
2022/01/24 03:19:32;;;;;;;4.13;1.17;;;30.70;92.90;;;;;;5033794;28;20024;-69
2022/01/24 03:21:59;;;;;;;3.60;0.60;;;31.00;91.60;;;;;;5033698;28;20473;-68
2022/01/24 03:24:26;;;;;;;6.28;1.00;;;31.00;91.80;;;;;;5033211;28;20029;-69
2022/01/24 03:26:54;;;;;;;19.17;2.25;;;30.60;91.60;;;;;;5027682;28;20060;-72
2022/01/24 03:29:21;;;;;;;12.35;1.67;;;30.20;92.10;;;;;;5031785;28;20056;-72
2022/01/24 03:31:48;;;;;;;6.18;0.82;;;29.60;92.50;;;;;;5033243;28;20089;-72
2022/01/24 03:34:16;;;;;;;3.92;0.60;;;29.20;93.10;;;;;;5034697;28;20036;-71
2022/01/24 03:36:44;;;;;;;5.97;0.82;;;28.80;93.70;;;;;;5033066;28;20030;-73
2022/01/24 03:39:12;;;;;;;10.63;1.45;;;28.60;93.60;;;;;;5033997;28;20017;-66
2022/01/24 03:41:40;;;;;;;3.85;0.52;;;28.30;94.40;;;;;;5033286;28;20409;-70
2022/01/24 03:44:11;;;;;;;3.90;1.00;;;28.10;94.20;;;;;;5032513;28;20054;-72
2022/01/24 03:47:01;;;;;;;5.88;0.65;;;27.90;94.30;;;;;;5032949;28;20442;-69
2022/01/24 03:49:45;;;;;;;6.07;1.00;;;27.80;94.40;;;;;;5032438;28;20038;-72
2022/01/24 03:52:14;;;;;;;3.10;0.60;;;27.50;95.00;;;;;;5031381;28;20029;-70
2022/01/24 03:54:43;;;;;;;12.13;2.03;;;27.20;94.90;;;;;;5032733;28;20025;-70
2022/01/24 03:57:13;;;;;;;13.95;2.42;;;27.00;95.50;;;;;;5030481;28;20030;-71
2022/01/24 03:59:41;;;;;;;14.65;2.05;;;26.80;95.60;;;;;;5031136;28;20013;-70
2022/01/24 04:02:11;;;;;;;10.00;1.58;;;26.70;95.70;;;;;;5031084;28;20029;-70
2022/01/24 04:04:39;;;;;;;7.55;1.38;;;26.50;96.30;;;;;;5025891;28;20044;-72
2022/01/24 04:07:07;;;;;;;4.15;0.60;;;26.60;96.70;;;;;;5027599;28;20410;-69
2022/01/24 04:09:35;;;;;;;11.13;1.30;;;26.70;97.20;;;;;;5027843;28;20128;-72
2022/01/24 04:12:03;;;;;;;6.22;0.70;;;26.80;97.20;;;;;;5030632;28;20013;-68
2022/01/24 04:14:38;;;;;;;5.35;1.25;;;27.00;96.90;;;;;;5027052;28;20115;-71
2022/01/24 04:22:17;;;;;;;13.73;2.00;;;29.40;93.30;;;;;;5031459;28;20033;-70
2022/01/24 04:24:46;;;;;;;17.98;2.72;;;30.10;92.50;;;;;;5032079;28;20022;-70
2022/01/24 04:27:15;;;;;;;11.80;1.92;;;30.10;91.80;;;;;;5047650;28;20024;-72
2022/01/24 04:29:43;;;;;;;6.95;0.80;;;29.70;92.70;;;;;;5039985;28;20035;-72
2022/01/24 04:32:10;;;;;;;5.75;1.08;;;30.10;92.50;;;;;;5032336;28;20470;-70
2022/01/24 04:34:38;;;;;;;8.10;1.95;;;30.40;91.20;;;;;;5031752;28;20116;-69
2022/01/24 04:37:05;;;;;;;23.02;2.70;;;30.70;90.80;;;;;;5031944;28;20025;-70
2022/01/24 04:39:33;;;;;;;7.90;1.45;;;30.80;90.60;;;;;;5031109;28;20144;-67
2022/01/24 04:42:08;;;;;;;11.18;2.00;;;30.40;90.90;;;;;;5031214;28;20061;-71
2022/01/24 04:45:11;;;;;;;12.40;2.00;;;30.00;90.90;;;;;;5031350;28;20420;-69
2022/01/24 04:51:03;;;;;;;21.67;2.38;;;29.10;91.70;;;;;;5000824;28;20173;-70
2022/01/24 04:55:59;;;;;;;4.55;0.60;;;29.40;91.50;;;;;;5029581;28;20070;-70
2022/01/24 04:58:26;;;;;;;3.47;0.65;;;30.30;91.00;;;;;;5030564;28;20025;-68
2022/01/24 05:00:53;;;;;;;3.42;0.45;;;31.00;90.20;;;;;;5031137;28;20136;-70
2022/01/24 05:03:21;;;;;;;4.10;0.73;;;31.90;87.10;;;;;;5030319;28;20021;-69
2022/01/24 05:05:49;;;;;;;3.72;0.70;;;32.50;84.60;;;;;;5030250;28;20025;-70
2022/01/24 05:08:17;;;;;;;3.30;0.88;;;33.00;84.30;;;;;;5030644;28;20060;-69
2022/01/24 05:11:00;;;;;;;3.15;0.45;;;33.10;82.40;;;;;;5025837;28;20373;-73
2022/01/24 05:24:24;;;;;;;6.57;0.60;;;29.70;87.80;;;;;;5029887;28;20117;-68
2022/01/24 05:26:53;;;;;;;3.88;0.50;;;29.50;88.60;;;;;;5028955;28;20228;-70
2022/01/24 05:29:20;;;;;;;4.03;0.50;;;29.20;89.10;;;;;;5029481;28;20036;-73
2022/01/24 05:31:47;;;;;;;5.00;0.82;;;29.20;89.90;;;;;;5020847;28;20048;-70
2022/01/24 05:34:15;;;;;;;4.30;0.70;;;29.50;90.20;;;;;;5020826;28;20030;-71
2022/01/24 05:36:42;;;;;;;3.97;0.30;;;29.90;88.40;;;;;;5021243;28;20044;-69
2022/01/24 05:39:11;;;;;;;4.22;0.45;;;29.70;89.30;;;;;;5024542;28;20028;-71
2022/01/24 05:41:41;;;;;;;1.48;0.93;;;30.30;88.40;;;;;;5030135;28;20034;-69
2022/01/24 05:44:09;;;;;;;3.35;0.63;;;30.80;86.80;;;;;;5030235;28;20021;-69
2022/01/24 05:46:36;;;;;;;6.05;1.15;;;30.90;86.70;;;;;;5030191;28;20462;-67
2022/01/24 05:49:04;;;;;;;5.28;0.90;;;30.90;88.00;;;;;;5027637;28;20061;-69
2022/01/24 05:51:33;;;;;;;5.05;0.90;;;31.00;89.80;;;;;;5029708;28;20092;-67
2022/01/24 05:54:00;;;;;;;3.92;0.80;;;31.60;87.00;;;;;;5029226;28;20075;-73
2022/01/24 05:56:28;;;;;;;3.05;0.80;;;31.70;86.30;;;;;;5028485;28;20466;-70
2022/01/24 05:58:55;;;;;;;7.65;0.93;;;31.60;86.50;;;;;;5028529;28;20029;-70
2022/01/24 06:01:22;;;;;;;4.90;0.70;;;31.70;85.60;;;;;;5027233;28;20025;-69
2022/01/24 06:03:50;;;;;;;4.75;0.80;;;31.10;87.30;;;;;;5028818;28;20084;-71
2022/01/24 06:06:17;;;;;;;3.78;0.80;;;30.90;88.20;;;;;;5029133;28;20105;-70
2022/01/24 06:08:44;;;;;;;5.38;0.60;;;30.50;88.10;;;;;;5029273;28;20034;-68
2022/01/24 06:11:12;;;;;;;4.47;0.68;;;29.80;88.50;;;;;;5027324;28;20095;-69
2022/01/24 06:13:39;;;;;;;6.93;0.98;;;29.10;90.60;;;;;;5029285;28;20474;-72
2022/01/24 06:16:06;;;;;;;4.50;0.75;;;29.10;91.40;;;;;;5031284;28;20474;-69
2022/01/24 06:18:34;;;;;;;5.45;1.00;;;29.70;90.60;;;;;;5032678;28;20024;-70
2022/01/24 06:21:01;;;;;;;5.78;0.80;;;29.80;90.30;;;;;;5033376;28;20474;-71
2022/01/24 06:23:28;;;;;;;6.78;1.13;;;30.10;88.90;;;;;;5032939;28;20045;-71
2022/01/24 06:25:55;;;;;;;3.47;0.65;;;30.30;89.00;;;;;;5032624;28;20017;-72
2022/01/24 06:28:24;;;;;;;4.90;0.60;;;30.30;89.90;;;;;;5032137;28;20032;-71
2022/01/24 06:30:51;;;;;;;3.40;0.80;;;30.30;88.50;;;;;;5032734;28;20060;-70
2022/01/24 06:33:18;;;;;;;6.28;1.17;;;30.20;88.60;;;;;;5032588;28;20025;-71
2022/01/24 06:35:46;;;;;;;6.63;1.05;;;30.10;88.60;;;;;;5032626;28;20017;-71
2022/01/24 06:38:13;;;;;;;5.95;1.20;;;29.80;90.00;;;;;;5027185;28;20118;-71
2022/01/24 06:40:40;;;;;;;4.40;1.00;;;29.20;90.10;;;;;;5032275;28;20436;-72
2022/01/24 06:43:08;;;;;;;9.38;1.70;;;28.70;91.00;;;;;;5031728;28;20071;-71
2022/01/24 06:45:35;;;;;;;7.03;1.10;;;28.30;91.80;;;;;;5032840;28;20116;-70
2022/01/24 06:48:02;;;;;;;7.97;0.95;;;27.90;93.00;;;;;;5030045;28;20021;-71
2022/01/24 06:50:30;;;;;;;5.70;1.52;;;27.80;93.00;;;;;;5032399;28;20029;-70
2022/01/24 06:52:57;;;;;;;6.35;1.00;;;27.70;93.60;;;;;;5032000;28;20025;-72
2022/01/24 06:55:24;;;;;;;4.72;1.05;;;27.80;93.40;;;;;;5032007;28;20492;-72
2022/01/24 06:57:52;;;;;;;7.13;1.38;;;27.60;93.30;;;;;;5029601;28;20025;-70
2022/01/24 07:00:26;;;;;;;7.78;1.42;;;27.60;93.60;;;;;;5033358;28;20413;-71
2022/01/24 07:02:54;;;;;;;3.78;0.90;;;27.60;94.10;;;;;;5033552;28;20025;-71
2022/01/24 07:05:25;;;;;;;4.57;0.70;;;27.50;94.20;;;;;;5033362;28;20057;-69
2022/01/24 07:07:56;;;;;;;6.55;0.80;;;27.00;94.50;;;;;;5033205;28;20293;-71
2022/01/24 07:10:25;;;;;;;7.00;1.33;;;26.60;95.30;;;;;;5032346;28;20112;-70
2022/01/24 07:12:55;;;;;;;4.32;0.73;;;26.20;96.00;;;;;;5029636;28;20018;-70
2022/01/24 07:15:30;;;;;;;5.82;0.77;;;26.00;96.30;;;;;;5031706;28;20371;-70
2022/01/24 07:20:25;;;;;;;4.68;1.05;;;25.70;96.80;;;;;;5032466;28;20108;-68
2022/01/24 07:22:52;;;;;;;4.70;1.02;;;25.50;97.30;;;;;;5030214;28;20076;-70
2022/01/24 07:25:22;;;;;;;5.72;0.95;;;25.30;97.60;;;;;;5032955;28;20025;-70
2022/01/24 07:27:49;;;;;;;5.00;0.85;;;25.20;97.40;;;;;;5029056;28;20021;-69
2022/01/24 07:30:16;;;;;;;6.22;0.95;;;25.00;97.70;;;;;;5032938;28;20079;-70
2022/01/24 07:32:43;;;;;;;6.63;1.02;;;24.90;97.80;;;;;;5031959;28;20021;-67
2022/01/24 07:35:11;;;;;;;4.32;0.90;;;24.80;98.10;;;;;;5032698;28;20026;-70
2022/01/24 07:37:38;;;;;;;7.60;1.42;;;24.80;98.50;;;;;;5032342;28;20025;-71
2022/01/24 07:40:09;;;;;;;4.65;0.90;;;24.80;98.50;;;;;;5032469;28;20045;-70
2022/01/24 07:43:18;;;;;;;10.52;1.67;;;24.70;98.30;;;;;;5030803;28;20029;-69
2022/01/24 07:45:28;;;;;;;9.00;2.28;;;24.70;98.40;;;;;;5026279;28;20034;-70
2022/01/24 07:47:55;;;;;;;4.70;0.93;;;24.70;98.50;;;;;;5031747;28;20021;-70
2022/01/24 07:50:26;;;;;;;8.32;1.55;;;24.60;98.70;;;;;;5031506;28;20092;-68
2022/01/24 07:52:53;;;;;;;6.53;1.80;;;24.60;98.70;;;;;;5029498;28;20175;-70
2022/01/24 07:55:21;;;;;;;7.68;1.92;;;24.50;98.80;;;;;;5030805;28;20568;-68
2022/01/24 07:57:49;;;;;;;4.78;1.50;;;24.40;98.80;;;;;;5029620;28;20059;-71
2022/01/24 08:00:16;;;;;;;6.68;1.40;;;24.40;98.80;;;;;;5031922;28;20021;-71
2022/01/24 08:02:43;;;;;;;8.07;1.80;;;24.50;99.00;;;;;;5030987;28;20029;-71
2022/01/24 08:05:11;;;;;;;8.43;2.05;;;24.60;98.60;;;;;;5031850;28;20028;-70
2022/01/24 08:07:39;;;;;;;5.18;2.53;;;24.70;98.70;;;;;;5031314;28;20774;-70
2022/01/24 08:10:09;;;;;;;8.52;2.47;;;24.70;98.80;;;;;;5030043;28;20467;-68
2022/01/24 08:12:38;;;;;;;5.30;1.48;;;24.70;98.80;;;;;;5030981;28;20014;-69
2022/01/24 08:15:14;;;;;;;6.03;1.45;;;24.50;99.00;;;;;;5031876;28;20478;-69
2022/01/24 08:17:46;;;;;;;9.52;3.30;;;24.50;99.40;;;;;;5031285;28;20021;-69
2022/01/24 08:20:14;;;;;;;9.80;3.40;;;24.30;99.80;;;;;;5032389;28;20100;-69
2022/01/24 08:22:42;;;;;;;6.68;1.58;;;24.30;99.80;;;;;;5032173;28;20567;-69
2022/01/24 08:25:10;;;;;;;10.02;1.80;;;24.30;99.90;;;;;;5032216;28;20048;-69
2022/01/24 08:27:38;;;;;;;4.70;1.63;;;24.20;99.90;;;;;;5032535;28;20108;-70
2022/01/24 08:30:12;;;;;;;7.25;1.45;;;24.10;99.90;;;;;;5032086;28;20037;-70
2022/01/24 08:32:40;;;;;;;6.32;1.30;;;23.90;99.90;;;;;;5030819;28;20022;-69
2022/01/24 08:35:09;;;;;;;9.90;1.65;;;23.90;99.90;;;;;;5028643;28;20033;-69
2022/01/24 08:37:37;;;;;;;10.20;1.75;;;23.80;99.90;;;;;;5030291;28;20018;-69
2022/01/24 08:40:07;;;;;;;11.63;2.20;;;23.80;99.90;;;;;;5030467;28;20083;-70
2022/01/24 08:43:23;;;;;;;4.82;1.38;;;23.70;99.90;;;;;;5030889;28;20017;-69
2022/01/24 08:48:13;;;;;;;9.02;1.85;;;23.70;99.90;;;;;;5027107;28;20024;-71
2022/01/24 08:50:41;;;;;;;11.57;1.60;;;23.60;99.90;;;;;;5030961;28;20040;-71
2022/01/24 08:53:12;;;;;;;6.68;1.95;;;23.50;99.90;;;;;;5031418;28;20017;-72
2022/01/24 08:55:40;;;;;;;5.55;1.33;;;23.40;99.90;;;;;;5031326;28;20109;-70
2022/01/24 08:58:13;;;;;;;7.90;2.60;;;23.40;99.90;;;;;;5030675;28;20017;-72
2022/01/24 09:00:42;;;;;;;7.85;1.30;;;23.30;99.90;;;;;;5030519;28;20037;-69
2022/01/24 09:03:10;;;;;;;6.15;1.20;;;23.30;99.90;;;;;;5030344;28;20018;-69
2022/01/24 09:05:37;;;;;;;7.47;1.98;;;23.20;99.90;;;;;;5030633;28;20482;-72
2022/01/24 09:08:06;;;;;;;8.02;1.85;;;23.20;99.90;;;;;;5030073;28;20108;-69
2022/01/24 09:10:35;;;;;;;8.90;1.63;;;23.20;99.90;;;;;;5030429;28;20088;-69
2022/01/24 09:13:02;;;;;;;7.45;1.60;;;23.10;99.90;;;;;;5028403;28;20581;-68
2022/01/24 09:15:30;;;;;;;6.80;1.52;;;23.10;99.90;;;;;;5030113;28;20052;-69
2022/01/24 09:17:58;;;;;;;9.23;1.65;;;23.20;99.90;;;;;;5029840;28;20017;-72
2022/01/24 09:20:25;;;;;;;13.27;2.42;;;23.20;99.90;;;;;;5029398;28;20029;-73
2022/01/24 09:22:53;;;;;;;7.97;1.83;;;23.20;99.90;;;;;;5030876;28;20057;-70
2022/01/24 09:25:22;;;;;;;8.93;3.08;;;23.10;99.90;;;;;;5030523;28;20020;-71
2022/01/24 09:27:50;;;;;;;10.10;2.47;;;23.00;99.90;;;;;;5027926;28;20110;-68
2022/01/24 09:30:20;;;;;;;9.13;2.50;;;23.10;99.90;;;;;;5030414;28;20120;-73
2022/01/24 09:32:48;;;;;;;7.32;1.98;;;23.00;99.90;;;;;;5029946;28;20478;-71
2022/01/24 09:35:16;;;;;;;8.15;1.77;;;23.00;99.90;;;;;;5030910;28;20033;-70
2022/01/24 09:37:45;;;;;;;8.45;2.42;;;22.90;99.90;;;;;;5029835;28;20036;-72
2022/01/24 09:40:15;;;;;;;7.80;1.92;;;22.90;99.90;;;;;;5028152;28;20029;-69
2022/01/24 09:42:44;;;;;;;8.77;2.35;;;22.90;99.90;;;;;;5030718;28;20025;-69
2022/01/24 09:45:13;;;;;;;14.30;2.20;;;22.80;99.90;;;;;;5029681;28;20433;-69
2022/01/24 09:47:41;;;;;;;9.60;1.70;;;22.90;99.90;;;;;;5027916;28;20063;-70
2022/01/24 09:50:10;;;;;;;7.68;2.58;;;22.80;99.90;;;;;;5029592;28;20072;-67
2022/01/24 09:52:41;;;;;;;14.25;3.47;;;22.80;99.90;;;;;;5030608;28;20095;-70
2022/01/24 09:55:09;;;;;;;6.30;1.40;;;22.80;99.90;;;;;;5030562;28;20429;-68
2022/01/24 09:57:36;;;;;;;11.57;1.70;;;22.80;99.90;;;;;;5027371;28;20331;-67
2022/01/24 10:00:08;;;;;;;10.15;1.90;;;22.80;99.90;;;;;;5030518;28;20044;-68
2022/01/24 10:02:35;;;;;;;7.40;1.98;;;22.80;99.90;;;;;;5027546;28;20030;-68
2022/01/24 10:05:21;;;;;;;9.77;1.70;;;22.80;99.90;;;;;;5030792;28;20467;-69
2022/01/24 10:07:58;;;;;;;9.60;1.67;;;22.80;99.90;;;;;;5030920;28;20029;-69
2022/01/24 10:10:48;;;;;;;6.68;2.25;;;22.80;99.90;;;;;;5030690;28;20136;-68
2022/01/24 10:19:08;;;;;;;11.23;1.60;;;22.90;99.90;;;;;;5030986;28;20055;-69
2022/01/24 10:21:42;;;;;;;6.03;1.92;;;22.80;99.90;;;;;;5030334;28;20211;-71
2022/01/24 10:24:12;;;;;;;7.53;1.63;;;22.80;99.90;;;;;;5030301;28;20025;-70
2022/01/24 10:26:40;;;;;;;7.40;2.03;;;22.80;99.90;;;;;;5028732;28;20500;-69
2022/01/24 10:29:12;;;;;;;7.70;1.75;;;22.80;99.90;;;;;;5030704;28;20038;-67
2022/01/24 10:31:48;;;;;;;11.32;1.85;;;22.70;99.90;;;;;;5030163;28;20076;-69
2022/01/24 10:36:43;;;;;;;13.18;2.05;;;22.70;99.90;;;;;;5032211;28;20094;-66
2022/01/24 10:39:12;;;;;;;9.73;1.63;;;22.70;99.90;;;;;;5029973;28;20500;-66
2022/01/24 10:42:11;;;;;;;7.50;1.90;;;22.70;99.90;;;;;;5030435;28;20025;-64
2022/01/24 10:44:36;;;;;;;11.77;1.80;;;22.70;99.90;;;;;;5010119;28;20038;-68
2022/01/24 10:47:23;;;;;;;10.57;1.98;;;22.70;99.90;;;;;;5023207;28;20041;-70
2022/01/24 10:49:52;;;;;;;9.25;1.95;;;22.70;99.90;;;;;;5030250;28;20378;-70
2022/01/24 10:52:29;;;;;;;8.15;1.38;;;22.60;99.90;;;;;;5029583;28;20022;-69
2022/01/24 10:55:16;;;;;;;10.07;1.83;;;22.60;99.90;;;;;;5029634;28;20022;-69
2022/01/24 10:57:47;;;;;;;9.27;1.60;;;22.60;99.90;;;;;;5029592;28;20079;-69
2022/01/24 11:00:19;;;;;;;13.30;1.77;;;22.60;99.90;;;;;;5030507;28;20025;-68
2022/01/24 11:02:50;;;;;;;10.07;1.67;;;22.60;99.90;;;;;;5033563;28;20021;-69
2022/01/24 11:05:25;;;;;;;7.68;1.45;;;22.60;99.90;;;;;;5033659;28;20398;-69
2022/01/24 11:08:00;;;;;;;10.20;1.50;;;22.60;99.90;;;;;;5033493;28;20018;-67
2022/01/24 11:10:34;;;;;;;10.05;1.58;;;22.60;99.90;;;;;;5033410;28;20096;-66
2022/01/24 11:13:06;;;;;;;8.68;1.90;;;22.60;99.90;;;;;;5033710;28;20021;-67
2022/01/24 11:15:35;;;;;;;13.57;1.58;;;22.60;99.90;;;;;;5033145;28;20026;-67
2022/01/24 11:18:03;;;;;;;11.55;2.13;;;22.60;99.90;;;;;;5032866;28;20022;-66
2022/01/24 11:20:34;;;;;;;12.63;1.77;;;22.60;99.90;;;;;;5034371;28;20060;-67
2022/01/24 11:23:05;;;;;;;9.52;1.83;;;22.60;99.90;;;;;;5033988;28;20052;-66
2022/01/24 11:25:38;;;;;;;9.20;1.50;;;22.70;99.90;;;;;;5033535;28;20467;-67
2022/01/24 11:28:07;;;;;;;12.40;1.80;;;22.60;99.90;;;;;;5033393;28;20033;-66
2022/01/24 11:30:52;;;;;;;9.73;1.58;;;22.60;99.90;;;;;;5033628;28;20031;-67
2022/01/24 11:33:32;;;;;;;9.05;2.08;;;22.70;99.90;;;;;;5033730;28;20021;-68
2022/01/24 11:36:07;;;;;;;12.50;2.08;;;22.70;99.90;;;;;;5033679;28;20029;-67
2022/01/24 11:38:38;;;;;;;12.63;1.75;;;22.60;99.90;;;;;;5033408;28;20037;-67
2022/01/24 11:41:31;;;;;;;11.85;1.67;;;22.60;99.90;;;;;;5032992;28;20017;-69
2022/01/24 11:44:08;;;;;;;;;;;22.60;99.90;;;;;;5034491;28;20045;-71
2022/01/24 11:46:52;;;;;;;10.15;1.65;;;22.60;99.90;;;;;;5033401;28;19905;-70
2022/01/24 11:49:26;;;;;;;12.55;2.13;;;22.60;99.90;;;;;;5033415;28;20041;-70
2022/01/24 11:52:19;;;;;;;10.90;2.47;;;22.60;99.90;;;;;;5033628;28;20425;-67
2022/01/24 11:55:00;;;;;;;10.85;3.15;;;22.60;99.90;;;;;;5033782;28;20017;-67
2022/01/24 11:57:47;;;;;;;7.68;1.52;;;22.60;99.90;;;;;;5033549;28;20033;-68
2022/01/24 12:00:29;;;;;;;11.63;1.52;;;22.60;99.90;;;;;;5033431;28;20029;-68
2022/01/24 12:03:04;;;;;;;11.35;1.60;;;22.60;99.90;;;;;;5033351;28;20021;-68
2022/01/24 12:05:41;;;;;;;13.02;2.00;;;22.60;99.90;;;;;;5032867;28;20382;-67
2022/01/24 12:08:12;;;;;;;10.95;1.65;;;22.60;99.90;;;;;;5032528;28;20018;-67
2022/01/24 12:10:43;;;;;;;8.52;1.65;;;22.70;99.90;;;;;;5033002;28;20049;-67
2022/01/24 12:13:19;;;;;;;9.77;1.77;;;22.70;99.90;;;;;;5032747;28;20423;-67
2022/01/24 12:15:49;;;;;;;12.40;1.70;;;22.80;99.90;;;;;;5033355;28;20417;-68
2022/01/24 12:18:43;;;;;;;8.25;1.45;;;22.70;99.90;;;;;;5032926;28;20096;-66
2022/01/24 12:21:13;;;;;;;7.25;1.85;;;22.80;99.90;;;;;;5032908;28;20032;-69
2022/01/24 12:23:43;;;;;;;9.27;1.20;;;22.80;99.90;;;;;;5032991;28;20362;-67
2022/01/24 12:26:32;;;;;;;11.05;1.30;;;22.80;99.90;;;;;;5032726;28;20026;-67
2022/01/24 12:29:09;;;;;;;12.82;3.00;;;22.80;99.90;;;;;;5031252;28;20028;-68
2022/01/24 12:31:50;;;;;;;12.20;1.60;;;22.80;99.90;;;;;;5032422;28;20021;-67
2022/01/24 12:34:39;;;;;;;10.80;1.85;;;22.80;99.90;;;;;;5032451;28;20075;-67
2022/01/24 12:37:10;;;;;;;10.75;1.50;;;22.80;99.90;;;;;;5032432;28;20028;-67
2022/01/24 12:39:45;;;;;;;11.43;1.95;;;22.80;99.90;;;;;;5032573;28;20385;-69
2022/01/24 12:42:24;;;;;;;8.82;1.40;;;22.80;99.90;;;;;;5032454;28;20086;-68
2022/01/24 12:47:26;;;;;;;6.55;1.33;;;22.80;99.90;;;;;;5032872;28;20095;-67
2022/01/24 12:49:55;;;;;;;11.00;1.85;;;22.90;99.90;;;;;;5032346;28;20057;-69
2022/01/24 12:52:25;;;;;;;11.20;1.40;;;22.90;99.90;;;;;;5032350;28;20378;-66
2022/01/24 12:54:59;;;;;;;6.15;1.42;;;22.90;99.90;;;;;;5032476;28;20033;-67
2022/01/24 12:57:32;;;;;;;9.50;1.42;;;22.90;99.90;;;;;;5032289;28;20018;-67
2022/01/24 13:00:19;;;;;;;6.95;1.75;;;22.90;99.90;;;;;;5032053;28;20033;-67
2022/01/24 13:02:46;;;;;;;13.13;1.52;;;22.90;99.90;;;;;;5031615;28;20486;-66
2022/01/24 13:05:17;;;;;;;9.32;1.98;;;22.90;99.90;;;;;;5032152;28;20033;-67
2022/01/24 13:08:14;;;;;;;12.50;1.48;;;22.90;99.90;;;;;;5032064;28;20394;-71
2022/01/24 13:10:44;;;;;;;8.35;2.40;;;22.90;99.90;;;;;;5030640;28;20413;-68
2022/01/24 13:13:14;;;;;;;8.45;1.30;;;22.80;99.90;;;;;;5031325;28;20386;-66
2022/01/24 13:21:19;;;;;;;10.32;1.80;;;22.80;99.90;;;;;;5031991;28;20088;-68
2022/01/24 13:23:57;;;;;;;11.13;1.30;;;22.90;99.90;;;;;;5031584;28;20033;-67
2022/01/24 13:26:25;;;;;;;10.38;2.25;;;22.80;99.90;;;;;;5030836;28;20470;-67
2022/01/24 13:29:02;;;;;;;9.07;1.70;;;22.80;99.90;;;;;;5031567;28;20100;-67
2022/01/24 13:31:29;;;;;;;12.32;2.25;;;22.80;99.90;;;;;;5031486;28;20045;-67
2022/01/24 13:33:57;;;;;;;11.85;1.83;;;22.70;99.90;;;;;;5031560;28;20055;-66
2022/01/24 13:36:25;;;;;;;7.90;2.25;;;22.70;99.90;;;;;;5031340;28;20056;-67
2022/01/24 13:38:53;;;;;;;9.88;2.38;;;22.60;99.90;;;;;;5031246;28;20049;-68
2022/01/24 13:41:23;;;;;;;6.72;1.25;;;22.50;99.90;;;;;;5031191;28;20034;-67
2022/01/24 13:44:01;;;;;;;9.13;1.40;;;22.40;99.90;;;;;;5031521;28;20099;-67
2022/01/24 13:46:41;;;;;;;10.98;2.22;;;22.40;99.90;;;;;;5031359;28;20049;-67
2022/01/24 13:49:14;;;;;;;9.00;1.85;;;22.40;99.90;;;;;;5030840;28;20025;-67
2022/01/24 13:51:46;;;;;;;9.73;1.63;;;22.40;99.90;;;;;;5031114;28;20017;-68
2022/01/24 13:54:29;;;;;;;6.72;1.30;;;22.40;99.90;;;;;;5031171;28;20030;-67
2022/01/24 13:57:02;;;;;;;10.63;1.38;;;22.40;99.90;;;;;;5031011;28;20026;-67
2022/01/24 13:59:32;;;;;;;10.38;1.63;;;22.40;99.90;;;;;;5030872;28;20108;-67
2022/01/24 14:02:02;;;;;;;10.00;1.48;;;22.40;99.90;;;;;;5031403;28;20099;-67
2022/01/24 14:04:42;;;;;;;11.68;1.95;;;22.40;99.90;;;;;;5031318;28;20025;-67
2022/01/24 14:07:21;;;;;;;7.65;1.58;;;22.50;99.90;;;;;;5031457;28;20107;-67
2022/01/24 14:10:05;;;;;;;12.45;1.58;;;22.50;99.90;;;;;;5031151;28;20050;-67
2022/01/24 14:12:43;;;;;;;7.88;1.83;;;22.50;99.90;;;;;;5030889;28;20091;-67
2022/01/24 14:15:20;;;;;;;9.43;1.30;;;22.50;99.90;;;;;;5030955;28;20086;-67
2022/01/24 14:18:23;;;;;;;10.88;1.80;;;22.50;99.90;;;;;;5030926;28;20026;-68
2022/01/24 14:20:56;;;;;;;10.45;2.00;;;22.50;99.90;;;;;;5030919;28;20053;-68
2022/01/24 14:23:43;;;;;;;11.80;1.80;;;22.50;99.90;;;;;;5030901;28;20429;-66
2022/01/24 14:26:15;;;;;;;7.75;1.40;;;22.40;99.90;;;;;;5031076;28;20421;-66
2022/01/24 14:28:43;;;;;;;10.82;2.13;;;22.40;99.90;;;;;;5030733;28;20037;-67
2022/01/24 14:31:13;;;;;;;7.63;1.00;;;22.40;99.90;;;;;;5030802;28;20030;-67
2022/01/24 14:33:42;;;;;;;9.27;1.42;;;22.40;99.90;;;;;;5030651;28;20037;-66
2022/01/24 14:36:18;;;;;;;10.00;1.92;;;22.50;99.90;;;;;;5029951;28;20028;-68
2022/01/24 14:38:46;;;;;;;11.15;1.88;;;22.50;99.90;;;;;;5034817;28;20134;-67
2022/01/24 14:41:18;;;;;;;10.05;2.00;;;22.50;99.90;;;;;;5034864;28;20037;-67
2022/01/24 14:46:37;;;;;;;15.30;2.55;;;22.60;99.90;;;;;;5035291;28;20117;-67
2022/01/24 14:49:07;;;;;;;11.95;1.70;;;22.60;99.90;;;;;;5034545;28;20112;-67
2022/01/24 14:51:39;;;;;;;8.18;1.30;;;22.60;99.90;;;;;;5033527;28;20022;-67
2022/01/24 14:54:12;;;;;;;8.23;1.30;;;22.60;99.90;;;;;;5034591;28;20026;-67
2022/01/24 14:56:42;;;;;;;8.05;1.60;;;22.60;99.90;;;;;;5034493;28;20429;-66
2022/01/24 14:59:09;;;;;;;8.25;1.05;;;22.60;99.90;;;;;;5034856;28;20028;-67
2022/01/24 15:01:37;;;;;;;8.23;1.83;;;22.70;99.90;;;;;;5034736;28;20021;-68
2022/01/24 15:04:05;;;;;;;11.57;2.17;;;22.60;99.90;;;;;;5034479;28;20021;-66
2022/01/24 15:06:34;;;;;;;7.10;1.60;;;22.50;99.90;;;;;;5033877;28;20032;-67